Tug Danielle Bouchard — WCX4443 — position and weather

sailwx.info

Track history (hours):
 
Tides and Currents Weather Stations Pressure Air Temp Water Temp Dewpoint Dewpoint Depression Visibility Wind Speed Wind Dir Waves Ship Positions

Tug Danielle Bouchard

Owner: Danielle M. Bouchard, MELVILLE, NY. More information available from US FCC via Universal Licensing System.

Last reported at 2018-Apr-25 03:18 UTC. Time now 2018-Apr-25 22:13 UTC.
Position N 25°29' W 080°02'.

Length 209 m; draft 6.7 m.

Type: Tanker. MMSI: 367006650.

Date/timePositionNaut miles runAvg speedWind from/ knotsBaromVisibWave heightAir tempDewpointWater temp
2018-Apr-25 03:18N 25°29' W 080°02'2 6.5
2018-Apr-25 02:58N 25°31' W 080°02'3 6.5
2018-Apr-25 02:30N 25°34' W 080°02'3 6.5
2018-Apr-25 01:59N 25°37' W 080°02'3 6.1
2018-Apr-25 01:30N 25°40' W 080°02'3 5.5
2018-Apr-25 01:00N 25°43' W 080°02'3 5.5
2018-Apr-25 00:30N 25°46' W 080°02'3 5.8
2018-Apr-25 00:00N 25°48' W 080°02'3 6.4
2018-Apr-24 23:30N 25°52' W 080°02'4 7.4
2018-Apr-24 23:00N 25°55' W 080°02'4 7.6
2018-Apr-24 22:30N 25°59' W 080°02'4 8.5
2018-Apr-24 22:00N 26°03' W 080°02'4 8.5
2018-Apr-24 21:30N 26°07' W 080°01'4 7.4
2018-Apr-24 21:00N 26°11' W 079°60'4 7.2
2018-Apr-24 20:30N 26°15' W 079°60'3 7.0
2018-Apr-24 20:00N 26°18' W 079°59'4 7.3
2018-Apr-24 19:30N 26°22' W 079°59'4 7.5
2018-Apr-24 19:00N 26°25' W 079°59'4 7.6
2018-Apr-24 18:30N 26°29' W 079°58'4 7.8
2018-Apr-24 18:00N 26°33' W 079°58'4 7.8
2018-Apr-24 17:30N 26°37' W 079°58'4 8.0
2018-Apr-24 17:00N 26°41' W 079°58'4 8.3
2018-Apr-24 16:30N 26°45' W 079°59'4 7.8
2018-Apr-24 16:00N 26°49' W 079°59'4 7.6
2018-Apr-24 15:30N 26°53' W 079°59'4 7.3
2018-Apr-24 15:00N 26°57' W 079°59'4 7.3
2018-Apr-24 14:30N 27°00' W 079°59'4 8.0
2018-Apr-24 13:59N 27°04' W 079°60'2 0.0
2018-Apr-22 12:02N 27°02' W 079°60'110.3
2018-Apr-22 11:59N 27°01' W 079°60'510.3
2018-Apr-22 11:30N 26°57' W 079°60'510.0
2018-Apr-22 11:00N 26°52' W 079°59'2211.1
2018-Apr-22 09:00N 26°30' W 079°59'611.6
2018-Apr-22 08:30N 26°24' W 080°00'611.8
2018-Apr-22 08:00N 26°18' W 080°01'612.0
2018-Apr-22 07:30N 26°12' W 080°02'611.5
2018-Apr-22 07:00N 26°06' W 080°03'4 7.2
2018-Apr-22 06:30N 26°06' W 080°07'0 0.5
2018-Apr-22 06:00N 26°06' W 080°07'0 0.0
2018-Apr-22 05:30N 26°06' W 080°07'0 0.0
2018-Apr-22 05:00N 26°06' W 080°07'0 0.0
2018-Apr-22 04:30N 26°06' W 080°07'0 0.0
2018-Apr-22 04:00N 26°06' W 080°07'0 0.0
2018-Apr-22 03:30N 26°06' W 080°07'0 0.0
2018-Apr-22 03:00N 26°06' W 080°07'0 0.0
2018-Apr-22 02:30N 26°06' W 080°07'0 0.0
2018-Apr-22 02:00N 26°06' W 080°07'0 0.0
2018-Apr-22 01:29N 26°06' W 080°07'0 0.0
2018-Apr-22 00:59N 26°06' W 080°07'0 0.0
2018-Apr-22 00:29N 26°06' W 080°07'0 0.0
2018-Apr-21 23:59N 26°06' W 080°07'0 0.0
2018-Apr-21 23:29N 26°06' W 080°07'0 0.0
2018-Apr-21 22:59N 26°06' W 080°07'0 0.0
2018-Apr-21 22:29N 26°06' W 080°07'0 0.0
2018-Apr-21 21:59N 26°06' W 080°07'0 0.0
2018-Apr-21 21:29N 26°06' W 080°07'0 0.0
2018-Apr-21 20:59N 26°06' W 080°07'0 0.0
2018-Apr-21 20:29N 26°06' W 080°07'0 0.0
2018-Apr-21 19:59N 26°06' W 080°07'0 0.0
2018-Apr-21 19:29N 26°06' W 080°07'0 0.0
2018-Apr-21 18:59N 26°06' W 080°07'0 0.0
2018-Apr-21 18:29N 26°06' W 080°07'0 0.0
2018-Apr-21 17:59N 26°06' W 080°07'0 0.0
2018-Apr-21 17:29N 26°06' W 080°07'0 0.0
2018-Apr-21 16:59N 26°06' W 080°07'0 0.0
2018-Apr-21 16:29N 26°06' W 080°07'0 0.0
2018-Apr-21 15:59N 26°06' W 080°07'0 0.0
2018-Apr-21 15:29N 26°06' W 080°07'0 0.0
2018-Apr-21 14:59N 26°06' W 080°07'0 0.0
2018-Apr-21 14:29N 26°06' W 080°07'0 0.0
2018-Apr-21 13:59N 26°06' W 080°07'0 0.0
2018-Apr-21 13:29N 26°06' W 080°07'0 0.0
2018-Apr-21 12:59N 26°06' W 080°07'0 0.0
2018-Apr-21 12:29N 26°06' W 080°07'0 0.0
2018-Apr-21 11:59N 26°06' W 080°07'0 0.0
2018-Apr-21 11:29N 26°06' W 080°07'0 0.0
2018-Apr-21 10:59N 26°06' W 080°07'0 0.0
2018-Apr-21 10:29N 26°06' W 080°07'0 0.0
2018-Apr-21 09:59N 26°06' W 080°07'0 0.0
2018-Apr-21 09:29N 26°06' W 080°07'0 0.0
2018-Apr-21 08:59N 26°06' W 080°07'0 0.0
2018-Apr-21 08:29N 26°06' W 080°07'0 0.0
2018-Apr-21 07:59N 26°06' W 080°07'0 0.0
2018-Apr-21 07:29N 26°06' W 080°07'0 0.0
2018-Apr-21 06:59N 26°06' W 080°07'0 0.0
2018-Apr-21 06:29N 26°06' W 080°07'0 0.0
2018-Apr-21 05:59N 26°06' W 080°07'0 0.0
2018-Apr-21 05:29N 26°06' W 080°07'0 0.0
2018-Apr-21 04:59N 26°06' W 080°07'0 0.0
2018-Apr-21 04:31N 26°06' W 080°07'0 0.0
2018-Apr-21 04:00N 26°06' W 080°07'0 0.0
2018-Apr-21 03:30N 26°06' W 080°07'0 0.0
2018-Apr-21 03:00N 26°06' W 080°07'0 0.0
2018-Apr-21 02:30N 26°06' W 080°07'0 0.0
2018-Apr-21 02:01N 26°06' W 080°07'0 0.0
2018-Apr-21 01:31N 26°06' W 080°07'0 0.0
2018-Apr-21 01:00N 26°06' W 080°07'0 0.6
2018-Apr-21 00:31N 26°06' W 080°07'4 7.2
2018-Apr-21 00:00N 26°06' W 080°03'4 7.3
2018-Apr-20 23:30N 26°03' W 080°03'5 9.6
2018-Apr-20 23:00N 25°58' W 080°03'3 6.7
2018-Apr-20 22:30N 25°55' W 080°03'2 4.4
2018-Apr-20 22:00N 25°52' W 080°03'612.0
2018-Apr-20 21:30N 25°47' W 080°03'713.1
2018-Apr-20 21:00N 25°40' W 080°02'713.0
2018-Apr-20 20:30N 25°33' W 080°02'712.9
2018-Apr-20 20:00N 25°27' W 080°02'612.6
2018-Apr-20 19:30N 25°21' W 080°03'  
2018-Apr-17 13:49N 28°49' W 093°52'410.6
2018-Apr-17 13:25N 28°52' W 093°56'410.6
2018-Apr-17 13:00N 28°54' W 094°00'1710.7
2018-Apr-17 11:26N 29°04' W 094°16'610.3
2018-Apr-17 10:50N 29°08' W 094°22'410.3
2018-Apr-17 10:27N 29°09' W 094°26'510.0
2018-Apr-17 09:59N 29°11' W 094°30'5 9.9
2018-Apr-17 09:30N 29°15' W 094°34'5 9.9
2018-Apr-17 09:00N 29°19' W 094°38'5 9.4
2018-Apr-17 08:30N 29°21' W 094°43'4 8.0
2018-Apr-17 08:00N 29°19' W 094°47'2 3.5
2018-Apr-17 07:21N 29°18' W 094°49'0 0.0
2018-Apr-17 06:51N 29°18' W 094°49'0 0.0
2018-Apr-17 06:30N 29°18' W 094°49'0 0.0
2018-Apr-17 06:00N 29°18' W 094°49'3 0.1
2018-Apr-16 06:01N 29°20' W 094°47'0 5.3
2018-Apr-16 05:56N 29°20' W 094°46'  
Track history (hours):
 
Tides and Currents Weather Stations Pressure Air Temp Water Temp Dewpoint Dewpoint Depression Visibility Wind Speed Wind Dir Waves Ship Positions

Tug Danielle Bouchard

Owner: Danielle M. Bouchard, MELVILLE, NY. More information available from US FCC via Universal Licensing System.

Last reported at 2018-Apr-25 03:18 UTC. Time now 2018-Apr-25 22:13 UTC.
Position N 25°29' W 080°02'.

Length 209 m; draft 6.7 m.

Type: Tanker. MMSI: 367006650.

Date/timePositionNaut miles runAvg speedWind from/ knotsBaromVisibWave heightAir tempDewpointWater temp
2018-Apr-25 03:18N 25°29' W 080°02'2 6.5
2018-Apr-25 02:58N 25°31' W 080°02'3 6.5
2018-Apr-25 02:30N 25°34' W 080°02'3 6.5
2018-Apr-25 01:59N 25°37' W 080°02'3 6.1
2018-Apr-25 01:30N 25°40' W 080°02'3 5.5
2018-Apr-25 01:00N 25°43' W 080°02'3 5.5
2018-Apr-25 00:30N 25°46' W 080°02'3 5.8
2018-Apr-25 00:00N 25°48' W 080°02'3 6.4
2018-Apr-24 23:30N 25°52' W 080°02'4 7.4
2018-Apr-24 23:00N 25°55' W 080°02'4 7.6
2018-Apr-24 22:30N 25°59' W 080°02'4 8.5
2018-Apr-24 22:00N 26°03' W 080°02'4 8.5
2018-Apr-24 21:30N 26°07' W 080°01'4 7.4
2018-Apr-24 21:00N 26°11' W 079°60'4 7.2
2018-Apr-24 20:30N 26°15' W 079°60'3 7.0
2018-Apr-24 20:00N 26°18' W 079°59'4 7.3
2018-Apr-24 19:30N 26°22' W 079°59'4 7.5
2018-Apr-24 19:00N 26°25' W 079°59'4 7.6
2018-Apr-24 18:30N 26°29' W 079°58'4 7.8
2018-Apr-24 18:00N 26°33' W 079°58'4 7.8
2018-Apr-24 17:30N 26°37' W 079°58'4 8.0
2018-Apr-24 17:00N 26°41' W 079°58'4 8.3
2018-Apr-24 16:30N 26°45' W 079°59'4 7.8
2018-Apr-24 16:00N 26°49' W 079°59'4 7.6
2018-Apr-24 15:30N 26°53' W 079°59'4 7.3
2018-Apr-24 15:00N 26°57' W 079°59'4 7.3
2018-Apr-24 14:30N 27°00' W 079°59'4 8.0
2018-Apr-24 13:59N 27°04' W 079°60'2 0.0
2018-Apr-22 12:02N 27°02' W 079°60'110.3
2018-Apr-22 11:59N 27°01' W 079°60'510.3
2018-Apr-22 11:30N 26°57' W 079°60'510.0
2018-Apr-22 11:00N 26°52' W 079°59'2211.1
2018-Apr-22 09:00N 26°30' W 079°59'611.6
2018-Apr-22 08:30N 26°24' W 080°00'611.8
2018-Apr-22 08:00N 26°18' W 080°01'612.0
2018-Apr-22 07:30N 26°12' W 080°02'611.5
2018-Apr-22 07:00N 26°06' W 080°03'4 7.2
2018-Apr-22 06:30N 26°06' W 080°07'0 0.5
2018-Apr-22 06:00N 26°06' W 080°07'0 0.0
2018-Apr-22 05:30N 26°06' W 080°07'0 0.0
2018-Apr-22 05:00N 26°06' W 080°07'0 0.0
2018-Apr-22 04:30N 26°06' W 080°07'0 0.0
2018-Apr-22 04:00N 26°06' W 080°07'0 0.0
2018-Apr-22 03:30N 26°06' W 080°07'0 0.0
2018-Apr-22 03:00N 26°06' W 080°07'0 0.0
2018-Apr-22 02:30N 26°06' W 080°07'0 0.0
2018-Apr-22 02:00N 26°06' W 080°07'0 0.0
2018-Apr-22 01:29N 26°06' W 080°07'0 0.0
2018-Apr-22 00:59N 26°06' W 080°07'0 0.0
2018-Apr-22 00:29N 26°06' W 080°07'0 0.0
2018-Apr-21 23:59N 26°06' W 080°07'0 0.0
2018-Apr-21 23:29N 26°06' W 080°07'0 0.0
2018-Apr-21 22:59N 26°06' W 080°07'0 0.0
2018-Apr-21 22:29N 26°06' W 080°07'0 0.0
2018-Apr-21 21:59N 26°06' W 080°07'0 0.0
2018-Apr-21 21:29N 26°06' W 080°07'0 0.0
2018-Apr-21 20:59N 26°06' W 080°07'0 0.0
2018-Apr-21 20:29N 26°06' W 080°07'0 0.0
2018-Apr-21 19:59N 26°06' W 080°07'0 0.0
2018-Apr-21 19:29N 26°06' W 080°07'0 0.0
2018-Apr-21 18:59N 26°06' W 080°07'0 0.0
2018-Apr-21 18:29N 26°06' W 080°07'0 0.0
2018-Apr-21 17:59N 26°06' W 080°07'0 0.0
2018-Apr-21 17:29N 26°06' W 080°07'0 0.0
2018-Apr-21 16:59N 26°06' W 080°07'0 0.0
2018-Apr-21 16:29N 26°06' W 080°07'0 0.0
2018-Apr-21 15:59N 26°06' W 080°07'0 0.0
2018-Apr-21 15:29N 26°06' W 080°07'0 0.0
2018-Apr-21 14:59N 26°06' W 080°07'0 0.0
2018-Apr-21 14:29N 26°06' W 080°07'0 0.0
2018-Apr-21 13:59N 26°06' W 080°07'0 0.0
2018-Apr-21 13:29N 26°06' W 080°07'0 0.0
2018-Apr-21 12:59N 26°06' W 080°07'0 0.0
2018-Apr-21 12:29N 26°06' W 080°07'0 0.0
2018-Apr-21 11:59N 26°06' W 080°07'0 0.0
2018-Apr-21 11:29N 26°06' W 080°07'0 0.0
2018-Apr-21 10:59N 26°06' W 080°07'0 0.0
2018-Apr-21 10:29N 26°06' W 080°07'0 0.0
2018-Apr-21 09:59N 26°06' W 080°07'0 0.0
2018-Apr-21 09:29N 26°06' W 080°07'0 0.0
2018-Apr-21 08:59N 26°06' W 080°07'0 0.0
2018-Apr-21 08:29N 26°06' W 080°07'0 0.0
2018-Apr-21 07:59N 26°06' W 080°07'0 0.0
2018-Apr-21 07:29N 26°06' W 080°07'0 0.0
2018-Apr-21 06:59N 26°06' W 080°07'0 0.0
2018-Apr-21 06:29N 26°06' W 080°07'0 0.0
2018-Apr-21 05:59N 26°06' W 080°07'0 0.0
2018-Apr-21 05:29N 26°06' W 080°07'0 0.0
2018-Apr-21 04:59N 26°06' W 080°07'0 0.0
2018-Apr-21 04:31N 26°06' W 080°07'0 0.0
2018-Apr-21 04:00N 26°06' W 080°07'0 0.0
2018-Apr-21 03:30N 26°06' W 080°07'0 0.0
2018-Apr-21 03:00N 26°06' W 080°07'0 0.0
2018-Apr-21 02:30N 26°06' W 080°07'0 0.0
2018-Apr-21 02:01N 26°06' W 080°07'0 0.0
2018-Apr-21 01:31N 26°06' W 080°07'0 0.0
2018-Apr-21 01:00N 26°06' W 080°07'0 0.6
2018-Apr-21 00:31N 26°06' W 080°07'4 7.2
2018-Apr-21 00:00N 26°06' W 080°03'4 7.3
2018-Apr-20 23:30N 26°03' W 080°03'5 9.6
2018-Apr-20 23:00N 25°58' W 080°03'3 6.7
2018-Apr-20 22:30N 25°55' W 080°03'2 4.4
2018-Apr-20 22:00N 25°52' W 080°03'612.0
2018-Apr-20 21:30N 25°47' W 080°03'713.1
2018-Apr-20 21:00N 25°40' W 080°02'713.0
2018-Apr-20 20:30N 25°33' W 080°02'712.9
2018-Apr-20 20:00N 25°27' W 080°02'612.6
2018-Apr-20 19:30N 25°21' W 080°03'  
2018-Apr-17 13:49N 28°49' W 093°52'410.6
2018-Apr-17 13:25N 28°52' W 093°56'410.6
2018-Apr-17 13:00N 28°54' W 094°00'1710.7
2018-Apr-17 11:26N 29°04' W 094°16'610.3
2018-Apr-17 10:50N 29°08' W 094°22'410.3
2018-Apr-17 10:27N 29°09' W 094°26'510.0
2018-Apr-17 09:59N 29°11' W 094°30'5 9.9
2018-Apr-17 09:30N 29°15' W 094°34'5 9.9
2018-Apr-17 09:00N 29°19' W 094°38'5 9.4
2018-Apr-17 08:30N 29°21' W 094°43'4 8.0
2018-Apr-17 08:00N 29°19' W 094°47'2 3.5
2018-Apr-17 07:21N 29°18' W 094°49'0 0.0
2018-Apr-17 06:51N 29°18' W 094°49'0 0.0
2018-Apr-17 06:30N 29°18' W 094°49'0 0.0
2018-Apr-17 06:00N 29°18' W 094°49'3 0.1
2018-Apr-16 06:01N 29°20' W 094°47'0 5.3
2018-Apr-16 05:56N 29°20' W 094°46'  

Dump ship's entire track history